Time;durP1;ratioP1;P1;durP2;ratioP2;P2;SDS_P1;SDS_P2;PMS_P1;PMS_P2;Temp;Humidity;BMP_temperature;BMP_pressure;BME280_temperature;BME280_humidity;BME280_pressure;Samples;Min_cycle;Max_cycle;Signal;HPM_P1;HPM_P2
2021/08/28 00:02:24;;;;;;;;;;;;;;;;;;;;;
2021/08/28 00:05:16;;;;;;;22.38;7.80;;;14.20;99.90;;;;;;5980396;23;20046;-81
2021/08/28 00:07:58;;;;;;;18.52;7.38;;;14.20;99.90;;;;;;6072710;23;20026;-81
2021/08/28 00:10:39;;;;;;;18.15;6.85;;;14.20;99.90;;;;;;6066764;23;21101;-82
2021/08/28 00:13:15;;;;;;;19.98;7.80;;;14.20;99.90;;;;;;6070705;23;20382;-82
2021/08/28 00:16:00;;;;;;;21.15;7.70;;;14.20;99.90;;;;;;6203892;23;20083;-82
2021/08/28 00:18:50;;;;;;;19.80;7.82;;;14.20;99.90;;;;;;6099676;23;20530;-82
2021/08/28 00:21:30;;;;;;;15.82;7.22;;;14.10;99.90;;;;;;6070345;23;20018;-82
2021/08/28 00:24:05;;;;;;;20.50;7.80;;;14.10;99.90;;;;;;6071721;23;20021;-80
2021/08/28 00:27:12;;;;;;;16.35;8.20;;;14.10;99.90;;;;;;6065122;23;20467;-82
2021/08/28 00:29:50;;;;;;;17.38;7.68;;;14.10;99.90;;;;;;6079513;23;20022;-82
2021/08/28 00:32:40;;;;;;;19.52;7.43;;;14.10;99.90;;;;;;6071415;23;20026;-82
2021/08/28 00:35:47;;;;;;;16.00;7.40;;;14.00;99.90;;;;;;6015801;23;20338;-81
2021/08/28 00:38:21;;;;;;;21.10;8.15;;;14.10;99.90;;;;;;6096354;23;20117;-82
2021/08/28 00:41:24;;;;;;;;;;;;;;;;;;;;;
2021/08/28 00:44:22;;;;;;;14.68;7.22;;;14.10;99.90;;;;;;5965223;23;20030;-83
2021/08/28 00:50:34;;;;;;;19.90;7.95;;;14.00;99.90;;;;;;5868939;24;20029;-82
2021/08/28 00:53:35;;;;;;;14.70;7.88;;;14.00;99.90;;;;;;5873689;24;20098;-80
2021/08/28 00:56:19;;;;;;;20.20;7.43;;;14.00;99.90;;;;;;5869471;24;20029;-82
2021/08/28 00:59:25;;;;;;;24.63;8.20;;;14.00;99.90;;;;;;5875933;24;20021;-82
2021/08/28 01:05:33;;;;;;;22.40;7.93;;;14.00;99.90;;;;;;5916063;23;20028;-81
2021/08/28 01:08:39;;;;;;;;;;;;;;;;;;;;;
2021/08/28 01:11:34;;;;;;;16.45;7.53;;;14.00;99.90;;;;;;5975671;23;20030;-82
2021/08/28 01:14:13;;;;;;;24.35;7.95;;;14.00;99.90;;;;;;5983566;23;20031;-80
2021/08/28 01:17:08;;;;;;;17.63;8.00;;;13.90;99.90;;;;;;6008747;23;20110;-81
2021/08/28 01:20:07;;;;;;;22.05;7.72;;;13.90;99.90;;;;;;6020732;23;20028;-82
2021/08/28 01:22:47;;;;;;;18.20;7.60;;;13.90;99.90;;;;;;5951079;23;20027;-80
2021/08/28 01:25:36;;;;;;;20.98;7.95;;;13.90;99.90;;;;;;6002294;23;20019;-82
2021/08/28 01:28:10;;;;;;;24.77;8.85;;;13.90;99.90;;;;;;6011433;23;20039;-82
2021/08/28 01:31:09;;;;;;;17.10;7.75;;;13.90;99.90;;;;;;5954164;23;20031;-80
2021/08/28 01:35:03;;;;;;;;;;;;;;;;;;;;;
2021/08/28 01:37:39;;;;;;;;;;;;;;;;;;;;;
2021/08/28 01:40:54;;;;;;;17.27;7.57;;;13.90;99.90;;;;;;5883166;24;20033;-80
2021/08/28 01:43:56;;;;;;;16.83;7.85;;;13.80;99.90;;;;;;5927419;23;20123;-81
2021/08/28 01:46:51;;;;;;;;;;;;;;;;;;;;;
2021/08/28 01:49:50;;;;;;;20.58;7.18;;;13.80;99.90;;;;;;5983691;23;20091;-81
2021/08/28 01:53:15;;;;;;;18.67;7.45;;;13.80;99.90;;;;;;6000381;23;20022;-81
2021/08/28 01:55:58;;;;;;;;;;;;;;;;;;;;;
2021/08/28 01:58:58;;;;;;;;;;;;;;;;;;;;;
2021/08/28 02:01:48;;;;;;;;;;;;;;;;;;;;;
2021/08/28 02:04:28;;;;;;;18.30;7.72;;;13.80;99.90;;;;;;6135317;23;20046;-82
2021/08/28 02:07:49;;;;;;;22.52;7.80;;;13.80;99.90;;;;;;6123319;22;20044;-81
2021/08/28 02:10:23;;;;;;;19.48;7.68;;;13.80;99.90;;;;;;6226179;22;20015;-81
2021/08/28 02:12:59;;;;;;;21.25;7.95;;;13.80;99.90;;;;;;6229422;22;20095;-79
2021/08/28 02:15:34;;;;;;;20.52;7.55;;;13.80;99.90;;;;;;6200436;22;20838;-82
2021/08/28 02:18:23;;;;;;;20.33;7.53;;;13.80;99.90;;;;;;6218456;22;20024;-81
2021/08/28 02:21:30;;;;;;;;;;;;;;;;;;;;;
2021/08/28 02:24:30;;;;;;;16.30;7.17;;;13.80;99.90;;;;;;6200516;22;20095;-78
2021/08/28 02:27:31;;;;;;;14.88;7.38;;;13.80;99.90;;;;;;6127880;23;20045;-80
2021/08/28 02:30:18;;;;;;;22.13;7.80;;;13.70;99.90;;;;;;6139976;23;20052;-82
2021/08/28 02:33:14;;;;;;;20.50;8.25;;;13.80;99.90;;;;;;6130141;23;20093;-82
2021/08/28 02:36:14;;;;;;;18.60;7.93;;;13.80;99.90;;;;;;6017230;23;20022;-78
2021/08/28 02:38:47;;;;;;;17.58;7.05;;;13.70;99.90;;;;;;6036024;23;20074;-81
2021/08/28 02:41:34;;;;;;;17.90;7.93;;;13.70;99.90;;;;;;6052879;23;20030;-81
2021/08/28 02:44:54;;;;;;;;;;;;;;;;;;;;;
2021/08/28 02:47:34;;;;;;;17.90;8.40;;;13.70;99.90;;;;;;6060973;23;20078;-81
2021/08/28 02:50:23;;;;;;;14.80;7.18;;;13.70;99.90;;;;;;6064293;23;20026;-81
2021/08/28 02:53:00;;;;;;;18.63;7.90;;;13.70;99.90;;;;;;6083808;23;20449;-82
2021/08/28 02:55:55;;;;;;;19.45;7.75;;;13.60;99.90;;;;;;6117062;23;20040;-80
2021/08/28 02:58:27;;;;;;;18.80;7.25;;;13.60;99.90;;;;;;6142101;23;20112;-82
2021/08/28 03:01:03;;;;;;;20.27;7.93;;;13.60;99.90;;;;;;6132051;23;20020;-82
2021/08/28 03:04:06;;;;;;;23.10;8.00;;;13.60;99.90;;;;;;6142981;23;20021;-82
2021/08/28 03:06:39;;;;;;;21.17;7.30;;;13.60;99.90;;;;;;6160005;23;20021;-82
2021/08/28 03:09:16;;;;;;;17.08;7.32;;;13.60;99.90;;;;;;6214738;23;20024;-81
2021/08/28 03:11:46;;;;;;;20.08;8.43;;;13.60;99.90;;;;;;6185686;23;20027;-82
2021/08/28 03:14:38;;;;;;;22.50;8.60;;;13.60;99.90;;;;;;6175074;23;20040;-80
2021/08/28 03:17:12;;;;;;;19.42;7.22;;;13.60;99.90;;;;;;6209517;22;20031;-81
2021/08/28 03:20:10;;;;;;;20.15;7.80;;;13.60;99.90;;;;;;6075660;23;20081;-82
2021/08/28 03:22:52;;;;;;;16.77;7.07;;;13.60;99.90;;;;;;6090968;23;20021;-82
2021/08/28 03:25:52;;;;;;;16.65;7.50;;;13.60;99.90;;;;;;6103056;23;20049;-82
2021/08/28 03:29:16;;;;;;;15.40;7.72;;;13.60;99.90;;;;;;5939035;23;20023;-80
2021/08/28 03:31:55;;;;;;;17.55;7.60;;;13.60;99.90;;;;;;5963325;23;20023;-83
2021/08/28 03:57:51;;;;;;;21.73;6.93;;;13.50;99.90;;;;;;6232121;22;1316785;-81
2021/08/28 04:00:18;;;;;;;17.02;7.15;;;13.40;99.90;;;;;;6250516;22;20020;-81
2021/08/28 04:03:22;;;;;;;18.10;7.25;;;13.40;99.90;;;;;;6212646;23;20022;-81
2021/08/28 04:06:03;;;;;;;19.65;7.47;;;13.40;99.90;;;;;;6072991;23;20040;-82
2021/08/28 04:08:32;;;;;;;21.67;6.45;;;13.40;99.90;;;;;;6122283;23;20088;-81
2021/08/28 04:11:10;;;;;;;18.08;7.13;;;13.40;99.90;;;;;;6126708;23;20017;-81
2021/08/28 04:13:39;;;;;;;16.90;6.82;;;13.40;99.90;;;;;;6176573;23;20017;-81
2021/08/28 04:16:38;;;;;;;;;;;;;;;;;;;;;
2021/08/28 04:19:43;;;;;;;;;;;;;;;;;;;;;
2021/08/28 04:22:19;;;;;;;17.13;6.57;;;13.40;99.90;;;;;;6075572;23;20090;-80
2021/08/28 04:25:06;;;;;;;;;;;;;;;;;;;;;
2021/08/28 04:27:48;;;;;;;23.00;6.93;;;13.40;99.90;;;;;;6072014;23;20354;-80
2021/08/28 04:30:33;;;;;;;17.30;6.97;;;13.40;99.90;;;;;;6059193;23;20023;-79
2021/08/28 04:33:55;;;;;;;12.98;6.38;;;13.40;99.90;;;;;;6027953;23;20048;-80
2021/08/28 04:36:54;;;;;;;16.77;6.80;;;13.40;99.90;;;;;;5996022;23;20127;-82
2021/08/28 04:40:09;;;;;;;19.13;7.15;;;13.40;99.90;;;;;;6036986;23;20105;-81
2021/08/28 04:43:12;;;;;;;;;;;;;;;;;;;;;
2021/08/28 04:45:55;;;;;;;18.23;6.78;;;13.40;99.90;;;;;;6141150;23;20078;-81
2021/08/28 04:49:08;;;;;;;20.92;6.32;;;13.30;99.90;;;;;;6040168;23;20041;-81
2021/08/28 04:51:59;;;;;;;17.33;6.57;;;13.30;99.90;;;;;;6017979;23;20352;-80
2021/08/28 04:54:37;;;;;;;;;;;;;;;;;;;;;
2021/08/28 04:57:22;;;;;;;19.13;6.47;;;13.30;99.90;;;;;;6094739;23;20108;-80
2021/08/28 05:00:34;;;;;;;;;;;;;;;;;;;;;
2021/08/28 05:03:12;;;;;;;16.13;5.70;;;13.30;99.90;;;;;;6042468;23;20014;-77
2021/08/28 05:05:48;;;;;;;15.57;6.72;;;13.30;99.90;;;;;;6086037;23;20108;-81
2021/08/28 05:08:26;;;;;;;20.30;6.55;;;13.30;99.90;;;;;;6170935;23;20373;-81
2021/08/28 05:11:02;;;;;;;14.25;6.63;;;13.30;99.90;;;;;;6181368;23;20043;-81
2021/08/28 05:13:33;;;;;;;14.13;6.43;;;13.30;99.90;;;;;;6158397;23;20067;-81
2021/08/28 05:16:02;;;;;;;17.58;5.93;;;13.20;99.90;;;;;;6183385;23;20059;-81
2021/08/28 05:18:43;;;;;;;16.73;5.55;;;13.20;99.90;;;;;;6174716;23;20020;-81
2021/08/28 05:21:31;;;;;;;17.70;6.07;;;13.20;99.90;;;;;;6152841;23;20020;-81
2021/08/28 05:24:16;;;;;;;17.38;5.72;;;13.20;99.90;;;;;;6213727;23;20036;-80
2021/08/28 05:27:00;;;;;;;14.80;5.67;;;13.20;99.90;;;;;;6228911;23;20020;-81
2021/08/28 05:29:44;;;;;;;12.82;5.45;;;13.20;99.90;;;;;;6228631;22;20040;-80
2021/08/28 05:32:48;;;;;;;22.38;6.03;;;13.20;99.90;;;;;;6221707;22;20020;-81
2021/08/28 05:36:26;;;;;;;15.32;5.75;;;13.20;99.90;;;;;;6158534;22;20048;-81
2021/08/28 05:40:18;;;;;;;;;;;;;;;;;;;;;
2021/08/28 06:07:27;;;;;;;11.85;4.90;;;13.30;99.90;;;;;;6096670;22;1335092;-79
2021/08/28 06:09:56;;;;;;;13.48;5.68;;;13.40;99.90;;;;;;6100661;23;20030;-77
2021/08/28 06:12:29;;;;;;;14.15;5.60;;;13.50;99.90;;;;;;6105739;23;20040;-79
2021/08/28 08:34:12;;;;;;;9.45;3.40;;;19.20;99.90;;;;;;6194608;22;21087;31
2021/08/28 10:11:25;;;;;;;5.78;2.40;;;22.10;99.90;;;;;;6237784;22;20032;-82
2021/08/28 10:28:27;;;;;;;5.65;2.03;;;22.40;99.90;;;;;;6209075;22;20089;-87
2021/08/28 10:39:16;;;;;;;8.20;2.05;;;22.70;99.90;;;;;;6042437;22;20035;-88
2021/08/28 10:41:53;;;;;;;5.82;1.85;;;22.80;99.90;;;;;;6236484;22;20075;-81
2021/08/28 10:45:04;;;;;;;7.80;2.10;;;22.90;99.90;;;;;;6220883;22;20024;-86
2021/08/28 11:01:57;;;;;;;7.72;2.10;;;23.60;99.90;;;;;;6128395;22;20025;-82
2021/08/28 12:50:42;;;;;;;3.05;1.30;;;24.60;95.50;;;;;;6244899;22;20024;-80
2021/08/28 14:29:52;;;;;;;3.75;1.25;;;24.40;93.10;;;;;;6168596;23;20382;-81
2021/08/28 14:32:19;;;;;;;5.18;1.60;;;24.30;93.60;;;;;;6181030;23;20040;-79
2021/08/28 14:34:46;;;;;;;5.93;1.58;;;24.20;93.90;;;;;;6129230;23;20017;-78
2021/08/28 14:37:13;;;;;;;18.80;2.20;;;24.20;94.00;;;;;;6167977;23;20465;-81
2021/08/28 14:39:43;;;;;;;4.78;1.48;;;24.30;94.00;;;;;;6158156;23;20083;-80
2021/08/28 14:43:11;;;;;;;;;;;;;;;;;;;;;
2021/08/28 14:45:41;;;;;;;3.65;1.48;;;24.60;93.30;;;;;;6092882;23;20026;-79
2021/08/28 14:49:25;;;;;;;;;;;;;;;;;;;;;
2021/08/28 14:51:42;;;;;;;5.60;1.85;;;24.70;92.60;;;;;;6041641;23;20463;-81
2021/08/28 14:54:11;;;;;;;16.08;2.00;;;24.40;92.90;;;;;;6080284;23;20090;-81
2021/08/28 14:56:41;;;;;;;5.90;1.67;;;24.30;93.50;;;;;;6094326;23;20023;-80
2021/08/28 14:59:09;;;;;;;10.75;2.08;;;24.10;93.60;;;;;;6081480;23;20018;-79
2021/08/28 15:01:37;;;;;;;;;;;23.90;93.90;;;;;;6095071;23;20018;-76
2021/08/28 15:04:05;;;;;;;5.35;1.58;;;23.70;94.10;;;;;;6064881;23;19917;-81
2021/08/28 15:06:32;;;;;;;4.57;1.58;;;23.70;94.30;;;;;;6094146;23;20018;-80
2021/08/28 15:08:59;;;;;;;7.97;1.80;;;23.70;94.50;;;;;;6093785;23;20014;-79
2021/08/28 15:11:27;;;;;;;6.47;1.60;;;23.80;94.50;;;;;;6093457;23;20032;-81
2021/08/28 15:13:58;;;;;;;5.93;1.67;;;23.90;94.70;;;;;;6093757;23;20395;-80
2021/08/28 15:16:27;;;;;;;4.55;1.45;;;24.00;94.30;;;;;;6092934;23;20034;-81
2021/08/28 15:18:55;;;;;;;6.38;1.58;;;24.10;94.10;;;;;;6126270;23;20500;-81
2021/08/28 15:21:22;;;;;;;5.75;1.45;;;24.30;94.00;;;;;;6157989;23;20023;-79
2021/08/28 15:23:53;;;;;;;7.18;1.58;;;24.40;93.60;;;;;;6159722;23;20442;-85
2021/08/28 15:26:20;;;;;;;3.67;1.40;;;24.60;93.20;;;;;;6105032;23;20051;-79
2021/08/28 15:28:47;;;;;;;5.38;1.50;;;24.70;93.60;;;;;;6198699;23;20328;-79
2021/08/28 15:31:19;;;;;;;6.60;1.80;;;24.80;93.30;;;;;;6225410;23;20016;-81
2021/08/28 15:33:46;;;;;;;7.80;1.85;;;24.80;93.30;;;;;;6236613;23;20016;-83
2021/08/28 15:36:13;;;;;;;7.05;1.67;;;24.70;93.20;;;;;;6213368;23;20067;-80
2021/08/28 15:38:40;;;;;;;9.13;1.67;;;24.60;93.30;;;;;;6214425;23;20055;-79
2021/08/28 15:41:07;;;;;;;5.60;1.42;;;24.40;93.30;;;;;;6213725;23;20067;-78
2021/08/28 15:43:36;;;;;;;11.23;2.05;;;24.20;93.40;;;;;;6213876;23;20064;-78
2021/08/28 15:46:05;;;;;;;6.55;1.55;;;24.00;93.90;;;;;;6216460;23;20028;-78
2021/08/28 15:48:34;;;;;;;4.88;1.55;;;23.90;94.00;;;;;;6214333;23;20025;-77
2021/08/28 15:51:03;;;;;;;5.05;1.50;;;23.80;94.30;;;;;;6214496;23;20021;-77
2021/08/28 15:53:30;;;;;;;4.88;1.70;;;23.80;94.30;;;;;;6214092;23;20075;-78
2021/08/28 15:55:57;;;;;;;7.57;1.50;;;23.90;94.20;;;;;;6216074;23;20071;-77
2021/08/28 15:58:25;;;;;;;5.63;1.55;;;23.90;93.90;;;;;;6213999;23;20071;-77
2021/08/28 16:00:52;;;;;;;6.00;1.65;;;23.90;93.50;;;;;;6216351;23;20028;-78
2021/08/28 16:03:19;;;;;;;4.63;1.30;;;23.90;93.70;;;;;;6239091;23;20101;-78
2021/08/28 16:05:46;;;;;;;4.63;1.23;;;24.00;93.90;;;;;;6214420;23;20504;-78
2021/08/28 16:08:13;;;;;;;5.60;1.98;;;24.00;94.20;;;;;;6189315;23;20029;-77
2021/08/28 16:10:41;;;;;;;13.65;2.00;;;23.90;94.50;;;;;;6214351;23;20012;-77
2021/08/28 16:13:13;;;;;;;8.50;1.85;;;23.90;94.80;;;;;;6213878;23;20028;-78
2021/08/28 16:15:41;;;;;;;6.18;1.50;;;23.90;94.90;;;;;;6213889;23;20055;-79
2021/08/28 16:18:08;;;;;;;6.32;1.40;;;23.90;94.90;;;;;;6198995;23;20024;-82
2021/08/28 16:20:42;;;;;;;4.47;1.25;;;23.90;94.80;;;;;;6238026;23;20099;-81
2021/08/28 16:23:10;;;;;;;6.32;1.60;;;23.90;94.80;;;;;;6196528;23;20029;-81
2021/08/28 16:25:38;;;;;;;8.60;1.77;;;23.80;94.90;;;;;;6118638;23;20029;-81
2021/08/28 16:28:07;;;;;;;6.85;1.60;;;23.70;95.10;;;;;;6211392;23;20021;-80
2021/08/28 16:30:46;;;;;;;4.70;1.40;;;23.60;95.30;;;;;;6192016;23;20023;-81
2021/08/28 16:33:15;;;;;;;10.85;1.77;;;23.50;95.50;;;;;;6212231;23;20027;-78
2021/08/28 16:35:42;;;;;;;6.75;1.80;;;23.40;95.70;;;;;;6198412;23;20024;-81
2021/08/28 16:38:11;;;;;;;5.93;1.40;;;23.30;96.00;;;;;;6201229;23;20024;-80
2021/08/28 16:40:45;;;;;;;5.55;1.73;;;23.30;95.80;;;;;;6212934;23;20525;-81
2021/08/28 16:43:13;;;;;;;8.98;1.60;;;23.30;95.40;;;;;;6197151;22;20050;-82
2021/08/28 16:45:40;;;;;;;5.68;1.52;;;23.40;95.20;;;;;;6237251;23;20025;-80
2021/08/28 16:48:13;;;;;;;5.63;1.58;;;23.30;95.00;;;;;;6202630;23;20375;-81
2021/08/28 16:50:42;;;;;;;6.68;1.65;;;23.40;95.20;;;;;;6228220;23;20099;-79
2021/08/28 16:53:13;;;;;;;5.20;1.55;;;23.40;95.30;;;;;;6211785;23;20019;-82
2021/08/28 16:55:40;;;;;;;7.63;1.60;;;23.40;95.30;;;;;;6212870;23;20332;-81
2021/08/28 16:58:07;;;;;;;5.47;1.77;;;23.30;95.30;;;;;;6212028;23;20016;-80
2021/08/28 17:00:36;;;;;;;5.47;1.65;;;23.20;95.40;;;;;;6212520;23;20020;-81
2021/08/28 17:03:07;;;;;;;5.40;1.73;;;23.20;95.50;;;;;;6211580;23;20103;-80
2021/08/28 17:05:34;;;;;;;7.35;1.60;;;23.20;95.60;;;;;;6212166;23;20449;-81
2021/08/28 17:08:01;;;;;;;6.93;1.80;;;23.30;95.60;;;;;;6213029;23;20047;-81
2021/08/28 17:10:33;;;;;;;6.35;1.38;;;23.40;95.40;;;;;;6212481;23;20480;-82
2021/08/28 17:13:00;;;;;;;5.90;1.38;;;23.40;95.00;;;;;;6202519;23;20027;-82
2021/08/28 17:15:27;;;;;;;4.72;1.38;;;23.40;94.80;;;;;;6237253;23;20029;-80
2021/08/28 17:17:54;;;;;;;4.60;1.45;;;23.40;94.70;;;;;;6213596;23;20032;-81
2021/08/28 17:20:21;;;;;;;10.50;6.03;;;23.30;95.00;;;;;;6212316;23;20027;-76
2021/08/28 17:22:47;;;;;;;5.68;1.42;;;23.20;94.50;;;;;;6214988;23;20338;-77
2021/08/28 17:25:15;;;;;;;3.67;1.38;;;23.20;94.60;;;;;;6237623;23;20031;-80
2021/08/28 17:27:42;;;;;;;5.65;1.30;;;23.10;94.60;;;;;;6203708;23;20028;-79
2021/08/28 17:30:21;;;;;;;6.05;1.30;;;23.00;94.60;;;;;;6223011;23;20016;-82
2021/08/28 17:32:57;;;;;;;4.80;1.40;;;23.00;94.40;;;;;;6212560;23;20024;-83
2021/08/28 17:39:19;;;;;;;5.30;1.48;;;22.80;94.10;;;;;;6242839;22;20040;-80
2021/08/28 17:41:56;;;;;;;4.20;1.50;;;22.80;94.50;;;;;;6230537;22;20018;-84
2021/08/28 17:44:54;;;;;;;6.07;1.40;;;22.70;94.80;;;;;;6271184;22;20016;-87
2021/08/28 17:47:22;;;;;;;8.40;3.15;;;22.70;94.70;;;;;;6222408;22;20718;-79
2021/08/28 17:50:08;;;;;;;5.38;2.10;;;22.80;94.90;;;;;;6274163;22;20023;-82
2021/08/28 17:53:32;;;;;;;;;;;;;;;;;;;;;
2021/08/28 17:56:22;;;;;;;6.55;1.95;;;22.90;94.80;;;;;;6217116;22;20459;-82
2021/08/28 17:59:34;;;;;;;;;;;;;;;;;;;;;
2021/08/28 18:04:46;;;;;;;5.60;1.52;;;23.80;94.00;;;;;;6223921;22;20027;-77
2021/08/28 18:11:55;;;;;;;4.93;1.70;;;24.60;93.30;;;;;;5769187;24;20019;-81
2021/08/28 18:14:30;;;;;;;5.97;1.90;;;25.20;92.40;;;;;;5696548;25;20031;-81
2021/08/28 18:17:05;;;;;;;5.70;1.30;;;25.70;91.80;;;;;;5700538;25;20036;-87
2021/08/28 18:23:54;;;;;;;5.53;1.60;;;26.20;90.70;;;;;;5063432;28;20399;-80
2021/08/28 18:31:14;;;;;;;;;;;;;;;;;;;;;
2021/08/28 18:57:13;;;;;;;5.85;1.50;;;21.30;95.10;;;;;;5990966;23;1416050;-81
2021/08/28 18:59:59;;;;;;;7.68;1.80;;;21.00;95.80;;;;;;6012011;23;20026;-81
2021/08/28 19:02:58;;;;;;;4.90;1.70;;;20.60;96.30;;;;;;5911729;23;20037;-82
2021/08/28 19:05:32;;;;;;;9.15;2.13;;;20.40;96.80;;;;;;6001966;23;20159;-82
2021/08/28 19:08:20;;;;;;;6.28;1.95;;;20.20;97.00;;;;;;6037070;23;20046;-80
2021/08/28 19:10:55;;;;;;;7.07;1.88;;;20.00;97.40;;;;;;6033312;23;20470;-81
2021/08/28 19:13:30;;;;;;;11.05;2.00;;;19.70;97.70;;;;;;6035615;23;20074;-80
2021/08/28 19:16:04;;;;;;;9.27;2.15;;;19.60;98.00;;;;;;6021438;23;20031;-82
2021/08/28 19:18:45;;;;;;;8.38;2.28;;;19.50;98.20;;;;;;6021086;23;20082;-81
2021/08/28 19:21:20;;;;;;;7.88;1.92;;;19.30;98.60;;;;;;6119198;23;20017;-80
2021/08/28 19:23:53;;;;;;;8.15;1.88;;;19.10;98.90;;;;;;6151055;23;20501;-82
2021/08/28 19:26:29;;;;;;;7.30;2.38;;;19.00;99.30;;;;;;6147622;23;20017;-81
2021/08/28 19:29:00;;;;;;;7.18;2.05;;;18.80;99.70;;;;;;6149133;23;20024;-81
2021/08/28 19:31:32;;;;;;;9.15;1.92;;;18.70;99.90;;;;;;6147655;23;20331;-82
2021/08/28 19:34:21;;;;;;;6.38;1.98;;;18.50;99.90;;;;;;6134173;23;20059;-82
2021/08/28 19:36:48;;;;;;;7.53;1.95;;;18.40;99.90;;;;;;6140182;23;20037;-81
2021/08/28 19:39:32;;;;;;;7.43;2.20;;;18.30;99.90;;;;;;6148272;23;20022;-79
2021/08/28 19:42:14;;;;;;;5.80;1.92;;;18.20;99.90;;;;;;6123623;23;20072;-81
2021/08/28 19:45:12;;;;;;;7.72;2.10;;;18.00;99.90;;;;;;6137128;23;20014;-82
2021/08/28 19:47:51;;;;;;;5.35;1.98;;;17.90;99.90;;;;;;6159629;23;20125;-82
2021/08/28 19:50:30;;;;;;;7.22;2.33;;;17.80;99.90;;;;;;6151064;23;20079;-82
2021/08/28 19:52:59;;;;;;;9.32;2.40;;;17.70;99.90;;;;;;6111214;23;20088;-81
2021/08/28 19:55:29;;;;;;;7.15;2.10;;;17.60;99.90;;;;;;6114059;23;20479;-81
2021/08/28 19:58:50;;;;;;;;;;;;;;;;;;;;;
2021/08/28 20:01:45;;;;;;;5.75;2.25;;;17.50;99.90;;;;;;5773735;24;20026;-82
2021/08/28 20:04:12;;;;;;;5.65;2.38;;;17.30;99.90;;;;;;5824923;24;20042;-82
2021/08/28 20:06:39;;;;;;;6.95;3.28;;;17.30;99.90;;;;;;5846824;24;20472;-82
2021/08/28 20:09:06;;;;;;;10.10;1.83;;;17.20;99.90;;;;;;5869195;24;20030;-83
2021/08/28 20:11:33;;;;;;;6.35;1.90;;;17.10;99.90;;;;;;5857700;24;20030;-81
2021/08/28 20:17:03;;;;;;;8.52;2.03;;;17.00;99.90;;;;;;5829063;24;20023;-83
2021/08/28 20:19:38;;;;;;;6.82;2.22;;;16.90;99.90;;;;;;5877485;24;20024;-80
2021/08/28 20:22:09;;;;;;;5.65;1.95;;;16.80;99.90;;;;;;5940442;24;20040;-82
2021/08/28 20:24:36;;;;;;;6.22;2.38;;;16.80;99.90;;;;;;5951565;24;20032;-79
2021/08/28 20:27:04;;;;;;;5.47;2.35;;;16.70;99.90;;;;;;5941445;24;20030;-81
2021/08/28 20:29:33;;;;;;;6.40;2.17;;;16.70;99.90;;;;;;5950925;24;20387;-80
2021/08/28 20:32:00;;;;;;;6.63;2.25;;;16.60;99.90;;;;;;5941398;24;20024;-82
2021/08/28 20:34:32;;;;;;;8.73;2.45;;;16.60;99.90;;;;;;5950517;24;20052;-81
2021/08/28 20:36:59;;;;;;;9.45;2.47;;;16.50;99.90;;;;;;5964629;23;20055;-82
2021/08/28 20:39:26;;;;;;;7.78;2.60;;;16.40;99.90;;;;;;6011572;23;20357;-81
2021/08/28 20:41:54;;;;;;;6.90;2.42;;;16.40;99.90;;;;;;6012493;23;20027;-82
2021/08/28 20:44:21;;;;;;;6.90;2.17;;;16.30;99.90;;;;;;6011489;23;20047;-81
2021/08/28 20:46:48;;;;;;;6.03;2.28;;;16.30;99.90;;;;;;6012197;23;20027;-79
2021/08/28 20:49:15;;;;;;;9.07;2.50;;;16.20;99.90;;;;;;6011691;23;20026;-82
2021/08/28 20:51:42;;;;;;;7.88;2.45;;;16.20;99.90;;;;;;6012392;23;20090;-79
2021/08/28 20:54:09;;;;;;;4.25;2.10;;;16.20;99.90;;;;;;6065153;23;20056;-82
2021/08/28 20:56:36;;;;;;;9.27;2.83;;;16.10;99.90;;;;;;6171283;23;20024;-81
2021/08/28 20:59:04;;;;;;;6.75;2.30;;;16.10;99.90;;;;;;6183321;23;20045;-83
2021/08/28 21:01:31;;;;;;;8.55;2.30;;;16.00;99.90;;;;;;6181902;23;20027;-81
2021/08/28 21:03:58;;;;;;;8.52;2.83;;;16.00;99.90;;;;;;6182774;23;20028;-81
2021/08/28 21:06:26;;;;;;;9.50;2.35;;;16.00;99.90;;;;;;6182586;23;20017;-81
2021/08/28 21:08:53;;;;;;;8.18;2.85;;;15.90;99.90;;;;;;6183347;23;20345;-80
2021/08/28 21:11:20;;;;;;;8.25;3.13;;;15.90;99.90;;;;;;6182675;23;20190;-79
2021/08/28 21:13:47;;;;;;;9.82;2.60;;;15.80;99.90;;;;;;6183365;23;20021;-81
2021/08/28 21:16:14;;;;;;;6.63;2.10;;;15.80;99.90;;;;;;6181961;23;20017;-80
2021/08/28 21:18:41;;;;;;;10.35;2.90;;;15.70;99.90;;;;;;6183439;23;20025;-80
2021/08/28 21:21:08;;;;;;;8.75;2.80;;;15.70;99.90;;;;;;6182719;23;20134;-79
2021/08/28 21:23:35;;;;;;;10.13;2.88;;;15.60;99.90;;;;;;6183321;23;20025;-80
2021/08/28 21:26:02;;;;;;;8.52;3.00;;;15.60;99.90;;;;;;6183181;23;20028;-78
2021/08/28 21:28:29;;;;;;;8.73;2.53;;;15.50;99.90;;;;;;6177061;23;20055;-81
2021/08/28 21:30:56;;;;;;;9.23;2.42;;;15.50;99.90;;;;;;6183189;23;20434;-80
2021/08/28 21:33:23;;;;;;;13.10;2.80;;;15.50;99.90;;;;;;6182462;23;20088;-81
2021/08/28 21:35:51;;;;;;;10.60;3.33;;;15.40;99.90;;;;;;6182827;23;20430;-81
2021/08/28 21:38:18;;;;;;;10.13;3.10;;;15.40;99.90;;;;;;6182511;23;20307;-81
2021/08/28 21:40:45;;;;;;;11.25;3.10;;;15.40;99.90;;;;;;6182982;23;20021;-81
2021/08/28 21:43:12;;;;;;;8.13;2.97;;;15.30;99.90;;;;;;6181784;23;20017;-81
2021/08/28 21:45:39;;;;;;;11.40;3.63;;;15.30;99.90;;;;;;6182464;23;20032;-80
2021/08/28 21:48:06;;;;;;;11.60;3.40;;;15.30;99.90;;;;;;6182021;23;20484;-79
2021/08/28 21:50:33;;;;;;;12.80;3.42;;;15.20;99.90;;;;;;6180170;23;20068;-80
2021/08/28 21:53:00;;;;;;;9.43;3.22;;;15.20;99.90;;;;;;6180199;23;20021;-81
2021/08/28 21:55:27;;;;;;;8.45;3.13;;;15.10;99.90;;;;;;6179042;23;20024;-81
2021/08/28 21:57:54;;;;;;;8.70;3.55;;;15.10;99.90;;;;;;6180417;23;20430;-81
2021/08/28 22:00:32;;;;;;;10.88;3.63;;;15.10;99.90;;;;;;6179199;23;20079;-81
2021/08/28 22:03:00;;;;;;;8.98;4.00;;;15.10;99.90;;;;;;6180397;23;20021;-80
2021/08/28 22:05:27;;;;;;;10.85;3.70;;;15.00;99.90;;;;;;6179210;23;20029;-78
2021/08/28 22:07:53;;;;;;;11.35;3.88;;;15.00;99.90;;;;;;6181387;23;20013;-79
2021/08/28 22:10:21;;;;;;;13.27;4.53;;;15.00;99.90;;;;;;6181657;23;20096;-78
2021/08/28 22:12:48;;;;;;;10.45;3.70;;;15.00;99.90;;;;;;6183044;23;20017;-81
2021/08/28 22:15:15;;;;;;;13.05;3.85;;;14.90;99.90;;;;;;6181504;23;20028;-80
2021/08/28 22:17:42;;;;;;;9.80;3.70;;;14.90;99.90;;;;;;6182757;23;20379;-80
2021/08/28 22:20:11;;;;;;;10.50;4.15;;;14.90;99.90;;;;;;6181977;23;20025;-81
2021/08/28 22:22:47;;;;;;;8.40;4.07;;;14.80;99.90;;;;;;6182709;23;20021;-81
2021/08/28 22:25:15;;;;;;;12.80;4.03;;;14.90;99.90;;;;;;6182017;23;20025;-80
2021/08/28 22:27:42;;;;;;;9.05;4.43;;;14.80;99.90;;;;;;6182414;23;20425;-78
2021/08/28 22:30:09;;;;;;;13.45;5.18;;;14.80;99.90;;;;;;6181619;23;20032;-81
2021/08/28 22:32:37;;;;;;;11.32;4.70;;;14.80;99.90;;;;;;6182860;23;20457;-80
2021/08/28 22:35:05;;;;;;;11.95;4.70;;;14.80;99.90;;;;;;6182645;23;20020;-79
2021/08/28 22:37:32;;;;;;;12.52;4.85;;;14.80;99.90;;;;;;6181130;23;20032;-80
2021/08/28 22:39:59;;;;;;;11.43;4.88;;;14.80;99.90;;;;;;6181040;23;20051;-78
2021/08/28 22:42:27;;;;;;;14.25;5.25;;;14.70;99.90;;;;;;6178793;23;20024;-80
2021/08/28 22:44:54;;;;;;;12.73;4.97;;;14.70;99.90;;;;;;6179587;23;20405;-78
2021/08/28 22:47:21;;;;;;;11.10;4.55;;;14.70;99.90;;;;;;6179094;23;20024;-79
2021/08/28 22:49:48;;;;;;;17.10;5.38;;;14.70;99.90;;;;;;6179970;23;20017;-80
2021/08/28 22:52:15;;;;;;;9.43;4.97;;;14.70;99.90;;;;;;6178527;23;20017;-80
2021/08/28 22:54:43;;;;;;;14.95;6.18;;;14.60;99.90;;;;;;6180919;23;20021;-80
2021/08/28 22:57:10;;;;;;;12.70;5.13;;;14.70;99.90;;;;;;6181821;23;20019;-77
2021/08/28 22:59:37;;;;;;;12.15;6.28;;;14.60;99.90;;;;;;6182526;23;20068;-79
2021/08/28 23:02:04;;;;;;;11.80;6.50;;;14.70;99.90;;;;;;6181614;23;20028;-76
2021/08/28 23:04:32;;;;;;;10.95;6.10;;;14.60;99.90;;;;;;6182117;23;20311;-80
2021/08/28 23:06:59;;;;;;;17.52;6.28;;;14.60;99.90;;;;;;6182501;23;20598;-76
2021/08/28 23:09:26;;;;;;;12.52;6.45;;;14.60;99.90;;;;;;6181867;23;20032;-77
2021/08/28 23:11:52;;;;;;;13.75;6.40;;;14.60;99.90;;;;;;6182355;23;20144;-80
2021/08/28 23:14:19;;;;;;;13.07;7.15;;;14.60;99.90;;;;;;6181910;23;20326;-80
2021/08/28 23:16:47;;;;;;;13.90;6.70;;;14.60;99.90;;;;;;6182699;23;20017;-78
2021/08/28 23:19:13;;;;;;;10.55;6.63;;;14.60;99.90;;;;;;6168707;23;20021;-80
2021/08/28 23:21:40;;;;;;;13.05;6.38;;;14.50;99.90;;;;;;6182440;23;20025;-79
2021/08/28 23:24:08;;;;;;;14.18;6.88;;;14.60;99.90;;;;;;6181400;23;20028;-78
2021/08/28 23:26:35;;;;;;;14.60;6.70;;;14.60;99.90;;;;;;6182863;23;20029;-80
2021/08/28 23:29:05;;;;;;;15.43;6.70;;;14.50;99.90;;;;;;6184283;23;20020;-78
2021/08/28 23:31:32;;;;;;;16.27;6.70;;;14.50;99.90;;;;;;6182837;23;20025;-80
2021/08/28 23:33:59;;;;;;;14.30;6.72;;;14.50;99.90;;;;;;6184441;23;20028;-79
2021/08/28 23:36:26;;;;;;;14.27;7.15;;;14.50;99.90;;;;;;6182772;23;20024;-80
2021/08/28 23:38:53;;;;;;;17.85;7.32;;;14.50;99.90;;;;;;6184610;23;20017;-80
2021/08/28 23:41:20;;;;;;;19.20;7.15;;;14.50;99.90;;;;;;6171035;23;20017;-80
2021/08/28 23:43:47;;;;;;;22.27;7.15;;;14.50;99.90;;;;;;6183685;23;20092;-80